createdAt,value
2022-12-19T00:01:54.171Z,-3.30
2022-12-19T00:04:40.371Z,-3.30
2022-12-19T00:07:26.153Z,-3.20
2022-12-19T00:10:12.129Z,-3.20
2022-12-19T00:12:58.176Z,-3.10
2022-12-19T00:15:44.323Z,-3.00
2022-12-19T00:18:30.239Z,-3.00
2022-12-19T00:21:17.710Z,-3.00
2022-12-19T00:24:08.660Z,-3.00
2022-12-19T00:27:06.712Z,-2.90
2022-12-19T00:29:52.820Z,-2.90
2022-12-19T00:32:38.821Z,-2.90
2022-12-19T00:35:25.010Z,-2.90
2022-12-19T00:38:11.014Z,-3.00
2022-12-19T00:41:06.324Z,-2.90
2022-12-19T00:43:52.979Z,-2.90
2022-12-19T00:46:38.924Z,-3.00
2022-12-19T00:49:25.757Z,-3.00
2022-12-19T00:52:11.686Z,-2.80
2022-12-19T00:54:57.626Z,-2.80
2022-12-19T00:57:43.546Z,-2.70
2022-12-19T01:00:29.963Z,-2.70
2022-12-19T01:03:16.066Z,-2.70
2022-12-19T01:06:02.526Z,-2.60
2022-12-19T01:08:48.968Z,-2.70
2022-12-19T01:11:53.736Z,-2.60
2022-12-19T01:14:39.487Z,-2.70
2022-12-19T01:17:27.008Z,-2.70
2022-12-19T01:20:19.083Z,-2.80
2022-12-19T01:23:16.828Z,-2.80
2022-12-19T01:26:02.766Z,-2.80
2022-12-19T01:28:49.013Z,-2.80
2022-12-19T01:31:35.062Z,-2.90
2022-12-19T01:34:22.038Z,-2.90
2022-12-19T01:37:07.880Z,-3.00
2022-12-19T01:39:53.833Z,-3.00
2022-12-19T01:42:39.769Z,-3.00
2022-12-19T01:45:33.856Z,-3.10
2022-12-19T01:48:22.393Z,-2.90
2022-12-19T01:51:19.950Z,-2.80
2022-12-19T01:54:07.451Z,-2.70
2022-12-19T01:56:55.817Z,-2.60
2022-12-19T01:59:47.781Z,-2.50
2022-12-19T02:02:35.458Z,-2.60
2022-12-19T02:05:21.590Z,-2.70
2022-12-19T02:08:07.636Z,-2.70
2022-12-19T02:10:53.495Z,-2.70
2022-12-19T02:13:39.729Z,-2.70
2022-12-19T02:16:30.040Z,-2.70
2022-12-19T02:19:35.641Z,-2.80
2022-12-19T02:22:28.246Z,-2.70
2022-12-19T02:25:33.302Z,-2.80
2022-12-19T02:28:35.661Z,-2.90
2022-12-19T02:31:25.741Z,-2.90
2022-12-19T02:34:36.239Z,-3.00
2022-12-19T02:37:28.052Z,-3.00
2022-12-19T02:40:19.931Z,-2.90
2022-12-19T02:43:08.872Z,-3.00
2022-12-19T02:45:56.494Z,-2.90
2022-12-19T02:48:44.990Z,-3.00
2022-12-19T02:51:31.386Z,-3.10
2022-12-19T02:54:17.258Z,-3.10
2022-12-19T02:57:13.127Z,-3.10
2022-12-19T03:00:14.110Z,-3.10
2022-12-19T03:03:09.244Z,-3.10
2022-12-19T03:05:58.308Z,-3.20
2022-12-19T03:08:53.635Z,-3.20
2022-12-19T03:11:41.612Z,-3.20
2022-12-19T03:14:28.110Z,-3.10
2022-12-19T03:17:14.478Z,-3.10
2022-12-19T03:20:00.812Z,-3.10
2022-12-19T03:22:46.925Z,-3.00
2022-12-19T03:25:33.481Z,-3.00
2022-12-19T03:28:21.519Z,-2.90
2022-12-19T03:31:08.687Z,-2.80
2022-12-19T03:33:59.293Z,-2.80
2022-12-19T03:36:47.113Z,-2.80
2022-12-19T03:39:34.040Z,-2.80
2022-12-19T03:42:40.421Z,-2.80
2022-12-19T03:45:32.055Z,-2.70
2022-12-19T03:48:26.323Z,-2.70
2022-12-19T03:51:15.071Z,-2.80
2022-12-19T03:54:04.357Z,-2.80
2022-12-19T03:56:49.991Z,-2.90
2022-12-19T03:59:39.621Z,-2.90
2022-12-19T04:02:26.415Z,-2.90
2022-12-19T04:05:15.671Z,-2.90
2022-12-19T04:08:06.078Z,-3.10
2022-12-19T04:10:54.398Z,-3.30
2022-12-19T04:13:47.487Z,-3.20
2022-12-19T04:16:33.416Z,-3.10
2022-12-19T04:19:31.349Z,-3.20
2022-12-19T04:22:22.625Z,-3.20
2022-12-19T04:25:13.921Z,-3.30
2022-12-19T04:28:05.924Z,-3.20
2022-12-19T04:30:52.496Z,-3.30
2022-12-19T04:33:38.509Z,-3.10
2022-12-19T04:36:25.314Z,-3.20
2022-12-19T04:39:11.201Z,-3.20
2022-12-19T04:41:57.287Z,-3.10
2022-12-19T04:44:43.154Z,-3.10
2022-12-19T04:47:29.048Z,-3.20
2022-12-19T04:50:15.684Z,-3.30
2022-12-19T04:53:01.621Z,-3.20
2022-12-19T04:55:47.703Z,-3.10
2022-12-19T04:58:34.758Z,-3.00
2022-12-19T05:01:20.574Z,-2.90
2022-12-19T05:04:06.711Z,-2.80
2022-12-19T05:06:52.602Z,-2.70
2022-12-19T05:09:38.662Z,-2.50
2022-12-19T05:12:24.756Z,-2.50
2022-12-19T05:15:10.730Z,-2.60
2022-12-19T05:17:57.267Z,-2.60
2022-12-19T05:20:43.230Z,-2.50
2022-12-19T05:23:29.349Z,-2.50
2022-12-19T05:26:15.432Z,-2.40
2022-12-19T05:29:01.461Z,-2.30
2022-12-19T05:31:47.482Z,-2.10
2022-12-19T05:34:33.546Z,-2.20
2022-12-19T05:37:19.542Z,-2.00
2022-12-19T05:40:05.691Z,-1.90
2022-12-19T05:42:51.516Z,-1.90
2022-12-19T05:45:38.794Z,-1.80
2022-12-19T05:48:24.546Z,-1.90
2022-12-19T05:51:10.567Z,-1.90
2022-12-19T05:53:56.757Z,-1.80
2022-12-19T05:56:42.502Z,-1.80
2022-12-19T05:59:28.476Z,-1.80
2022-12-19T06:02:15.152Z,-1.80
2022-12-19T06:05:01.128Z,-1.70
2022-12-19T06:07:47.097Z,-1.70
2022-12-19T06:10:33.940Z,-1.60
2022-12-19T06:13:24.891Z,-1.60
2022-12-19T06:16:12.918Z,-1.60
2022-12-19T06:18:58.961Z,-1.50
2022-12-19T06:21:48.139Z,-1.40
2022-12-19T06:24:34.426Z,-1.40
2022-12-19T06:27:20.432Z,-1.50
2022-12-19T06:30:06.713Z,-1.50
2022-12-19T06:32:54.561Z,-1.40
2022-12-19T06:35:40.637Z,-1.40
2022-12-19T06:38:27.134Z,-1.30
2022-12-19T06:41:32.462Z,-1.30
2022-12-19T06:44:18.259Z,-1.30
2022-12-19T06:47:04.742Z,-1.30
2022-12-19T06:49:50.564Z,-1.30
2022-12-19T06:52:36.548Z,-1.30
2022-12-19T06:55:22.314Z,-1.20
2022-12-19T06:58:08.402Z,-1.20
2022-12-19T07:00:54.459Z,-1.10
2022-12-19T07:03:41.298Z,-1.20
2022-12-19T07:06:28.029Z,-1.10
2022-12-19T07:09:13.770Z,-1.10
2022-12-19T07:12:00.211Z,-1.10
2022-12-19T07:14:51.689Z,-1.10
2022-12-19T07:17:39.259Z,-1.00
2022-12-19T07:20:25.338Z,-0.90
2022-12-19T07:23:13.284Z,-0.90
2022-12-19T07:25:59.613Z,-0.90
2022-12-19T07:28:45.322Z,-0.90
2022-12-19T07:31:31.369Z,-0.90
2022-12-19T07:34:17.255Z,-0.90
2022-12-19T07:37:03.183Z,-0.80
2022-12-19T07:39:49.312Z,-0.80
2022-12-19T07:42:35.379Z,-0.90
2022-12-19T07:45:21.153Z,-0.80
2022-12-19T07:48:07.401Z,-0.70
2022-12-19T07:50:53.402Z,-0.60
2022-12-19T07:53:39.445Z,-0.50
2022-12-19T07:56:25.470Z,-0.40
2022-12-19T07:59:13.086Z,-0.30
2022-12-19T08:01:59.023Z,-0.20
2022-12-19T08:04:45.260Z,-0.10
2022-12-19T08:07:31.399Z,0.00
2022-12-19T08:10:17.728Z,0.00
2022-12-19T08:13:03.685Z,0.10
2022-12-19T08:15:50.070Z,0.10
2022-12-19T08:18:36.627Z,0.20
2022-12-19T08:21:22.609Z,0.20
2022-12-19T08:24:08.592Z,0.30
2022-12-19T08:26:54.578Z,0.40
2022-12-19T08:29:40.516Z,0.40
2022-12-19T08:32:29.431Z,0.60
2022-12-19T08:35:15.567Z,0.60
2022-12-19T08:38:01.299Z,0.80
2022-12-19T08:40:54.311Z,1.00
2022-12-19T08:43:40.228Z,1.00
2022-12-19T08:46:26.047Z,1.10
2022-12-19T08:49:12.212Z,1.10
2022-12-19T08:51:58.094Z,1.10
2022-12-19T08:54:44.687Z,1.30
2022-12-19T08:57:30.755Z,1.50
2022-12-19T09:00:17.202Z,1.40
2022-12-19T09:03:06.340Z,1.50
2022-12-19T09:06:06.654Z,1.70
2022-12-19T09:09:00.313Z,1.80
2022-12-19T09:11:47.634Z,1.70
2022-12-19T09:14:34.880Z,1.80
2022-12-19T09:17:21.080Z,2.00
2022-12-19T09:20:07.534Z,2.00
2022-12-19T09:22:53.450Z,2.10
2022-12-19T09:25:39.570Z,2.20
2022-12-19T09:28:27.889Z,2.20
2022-12-19T09:31:15.688Z,2.40
2022-12-19T09:34:01.768Z,2.50
2022-12-19T09:36:47.826Z,2.60
2022-12-19T09:39:35.103Z,2.70
2022-12-19T09:42:21.202Z,2.70
2022-12-19T09:45:10.120Z,2.70
2022-12-19T09:47:58.946Z,2.80
2022-12-19T09:51:10.081Z,2.70
2022-12-19T09:54:10.587Z,2.60
2022-12-19T09:56:59.754Z,2.50
2022-12-19T09:59:51.197Z,2.60
2022-12-19T10:02:41.968Z,2.60
2022-12-19T10:06:32.245Z,2.80
2022-12-19T10:09:22.308Z,3.00
2022-12-19T10:12:39.411Z,3.00
2022-12-19T10:15:25.052Z,3.20
2022-12-19T10:18:23.687Z,3.40
2022-12-19T10:21:12.957Z,3.40
2022-12-19T10:24:07.742Z,3.50
2022-12-19T10:26:57.045Z,3.50
2022-12-19T10:29:52.126Z,3.60
2022-12-19T10:32:41.265Z,3.70
2022-12-19T10:35:31.809Z,3.70
2022-12-19T10:38:17.494Z,3.70
2022-12-19T10:41:06.667Z,3.70
2022-12-19T10:44:09.543Z,3.70
2022-12-19T10:46:55.627Z,3.60
2022-12-19T10:49:42.236Z,3.70
2022-12-19T10:52:46.773Z,3.70
2022-12-19T10:55:42.866Z,3.70
2022-12-19T10:58:33.745Z,3.70
2022-12-19T11:01:27.497Z,3.80
2022-12-19T11:04:18.732Z,3.80
2022-12-19T11:07:07.563Z,3.90
2022-12-19T11:10:10.618Z,3.90
2022-12-19T11:16:55.898Z,4.00
2022-12-19T11:21:20.276Z,4.10
2022-12-19T11:29:19.013Z,4.40
2022-12-19T11:29:34.919Z,4.80
2022-12-19T11:29:47.126Z,4.60
2022-12-19T11:31:51.508Z,5.20
2022-12-19T11:32:42.729Z,5.60
2022-12-19T11:35:37.057Z,6.30
2022-12-19T11:38:45.498Z,6.80
2022-12-19T11:41:41.027Z,7.20
2022-12-19T11:44:34.341Z,7.00
2022-12-19T11:47:32.480Z,6.70
2022-12-19T11:50:29.709Z,6.60
2022-12-19T11:53:30.281Z,6.50
2022-12-19T11:56:19.554Z,6.70
2022-12-19T11:59:25.561Z,6.60
2022-12-19T12:02:26.591Z,6.60
2022-12-19T12:05:35.657Z,6.30
2022-12-19T12:10:10.241Z,6.00
2022-12-19T12:19:55.034Z,5.70
2022-12-19T12:23:48.383Z,5.50
2022-12-19T12:31:08.057Z,5.20
2022-12-19T12:31:11.077Z,5.10
2022-12-19T12:31:23.268Z,5.00
2022-12-19T12:31:59.016Z,4.80
2022-12-19T12:35:51.086Z,4.50
2022-12-19T12:41:09.938Z,4.70
2022-12-19T12:44:07.175Z,4.70
2022-12-19T12:46:59.431Z,4.60
2022-12-19T12:49:47.463Z,4.50
2022-12-19T12:52:39.223Z,4.60
2022-12-19T12:55:40.327Z,4.70
2022-12-19T12:58:42.120Z,4.90
2022-12-19T13:01:28.658Z,5.10
2022-12-19T13:04:15.522Z,5.10
2022-12-19T13:07:26.955Z,5.10
2022-12-19T13:10:13.240Z,4.90
2022-12-19T13:13:16.467Z,4.90
2022-12-19T13:16:24.716Z,4.90
2022-12-19T13:19:22.645Z,5.00
2022-12-19T13:22:16.797Z,5.20
2022-12-19T13:25:02.429Z,5.30
2022-12-19T13:27:48.429Z,5.30
2022-12-19T13:30:46.445Z,5.30
2022-12-19T13:34:00.858Z,5.30
2022-12-19T13:39:50.171Z,5.20
2022-12-19T13:40:12.578Z,5.20
2022-12-19T13:43:30.855Z,5.30
2022-12-19T13:46:35.495Z,5.30
2022-12-19T13:49:34.394Z,5.20
2022-12-19T13:52:22.865Z,5.10
2022-12-19T13:55:13.720Z,4.90
2022-12-19T13:58:03.898Z,4.60
2022-12-19T14:00:53.833Z,4.30
2022-12-19T14:03:42.322Z,4.20
2022-12-19T14:06:30.947Z,4.10
2022-12-19T14:11:28.185Z,3.80
2022-12-19T14:13:52.003Z,3.60
2022-12-19T14:16:15.195Z,3.60
2022-12-19T14:19:01.320Z,3.50
2022-12-19T14:22:11.605Z,3.40
2022-12-19T14:25:10.081Z,3.30
2022-12-19T14:28:24.349Z,3.30
2022-12-19T14:31:16.638Z,3.20
2022-12-19T14:38:44.956Z,3.00
2022-12-19T14:40:33.392Z,2.90
2022-12-19T14:43:58.854Z,2.90
2022-12-19T14:52:25.480Z,2.70
2022-12-19T14:54:25.676Z,2.70
2022-12-19T14:54:52.673Z,2.70
2022-12-19T14:56:58.188Z,2.70
2022-12-19T14:59:46.162Z,2.70
2022-12-19T15:02:34.061Z,2.60
2022-12-19T15:05:21.207Z,2.60
2022-12-19T15:08:10.209Z,2.50
2022-12-19T15:11:40.085Z,2.50
2022-12-19T15:14:52.635Z,2.40
2022-12-19T15:17:43.674Z,2.40
2022-12-19T15:20:29.774Z,2.30
2022-12-19T15:23:21.652Z,2.20
2022-12-19T15:26:13.095Z,2.10
2022-12-19T15:28:59.782Z,2.00
2022-12-19T15:31:45.864Z,1.90
2022-12-19T15:34:37.958Z,1.90
2022-12-19T15:37:26.178Z,2.00
2022-12-19T15:40:15.116Z,2.00
2022-12-19T15:43:01.265Z,2.00
2022-12-19T15:45:49.226Z,2.00
2022-12-19T15:48:38.023Z,2.10
2022-12-19T15:51:23.837Z,2.00
2022-12-19T15:54:46.517Z,2.00
2022-12-19T15:57:30.901Z,2.00
2022-12-19T16:00:25.286Z,2.00
2022-12-19T16:03:22.540Z,1.90
2022-12-19T16:06:14.004Z,1.90
2022-12-19T16:08:59.966Z,2.00
2022-12-19T16:11:45.816Z,1.90
2022-12-19T16:14:31.742Z,1.90
2022-12-19T16:17:19.852Z,1.90
2022-12-19T16:20:14.709Z,1.90
2022-12-19T16:23:00.821Z,1.80
2022-12-19T16:25:48.329Z,1.80
2022-12-19T16:28:34.957Z,1.70
2022-12-19T16:31:23.497Z,1.70
2022-12-19T16:34:14.797Z,1.60
2022-12-19T16:37:00.795Z,1.60
2022-12-19T16:39:46.860Z,1.60
2022-12-19T16:42:33.713Z,1.60
2022-12-19T16:45:21.675Z,1.60
2022-12-19T16:48:16.674Z,1.50
2022-12-19T16:51:03.175Z,1.50
2022-12-19T16:53:50.666Z,1.50
2022-12-19T16:56:38.983Z,1.50
2022-12-19T16:59:31.155Z,1.40
2022-12-19T17:02:23.806Z,1.40
2022-12-19T17:05:24.016Z,1.50
2022-12-19T17:08:12.920Z,1.40
2022-12-19T17:10:59.146Z,1.40
2022-12-19T17:13:46.007Z,1.40
2022-12-19T17:16:32.060Z,1.40
2022-12-19T17:19:27.299Z,1.30
2022-12-19T17:22:14.503Z,1.30
2022-12-19T17:25:00.326Z,1.30
2022-12-19T17:27:46.801Z,1.30
2022-12-19T17:30:34.001Z,1.30
2022-12-19T17:33:21.963Z,1.30
2022-12-19T17:36:10.802Z,1.30
2022-12-19T17:38:57.048Z,1.30
2022-12-19T17:41:42.683Z,1.30
2022-12-19T17:44:28.805Z,1.30
2022-12-19T17:47:15.530Z,1.30
2022-12-19T17:50:01.438Z,1.30
2022-12-19T17:52:47.818Z,1.30
2022-12-19T17:55:34.070Z,1.30
2022-12-19T17:58:21.585Z,1.30
2022-12-19T18:01:16.868Z,1.40
2022-12-19T18:04:02.714Z,1.40
2022-12-19T18:06:49.396Z,1.40
2022-12-19T18:09:35.474Z,1.50
2022-12-19T18:12:21.521Z,1.40
2022-12-19T18:15:07.413Z,1.40
2022-12-19T18:17:53.637Z,1.40
2022-12-19T18:20:40.835Z,1.50
2022-12-19T18:23:27.058Z,1.30
2022-12-19T18:26:13.177Z,1.40
2022-12-19T18:28:59.189Z,1.30
2022-12-19T18:31:50.744Z,1.30
2022-12-19T18:34:37.206Z,1.20
2022-12-19T18:37:23.168Z,1.30
2022-12-19T18:40:22.307Z,1.30
2022-12-19T18:43:13.351Z,1.40
2022-12-19T18:45:59.305Z,1.40
2022-12-19T18:48:45.806Z,1.50
2022-12-19T18:51:31.692Z,1.50
2022-12-19T18:54:20.089Z,1.50
2022-12-19T18:57:05.953Z,1.40
2022-12-19T18:59:51.891Z,1.30
2022-12-19T19:02:39.573Z,1.10
2022-12-19T19:05:26.290Z,1.10
2022-12-19T19:08:19.948Z,1.10
2022-12-19T19:11:12.772Z,1.20
2022-12-19T19:13:59.014Z,1.30
2022-12-19T19:16:44.941Z,1.20
2022-12-19T19:19:30.811Z,1.20
2022-12-19T19:22:16.679Z,1.20
2022-12-19T19:25:02.955Z,1.10
2022-12-19T19:27:48.805Z,1.00
2022-12-19T19:30:35.705Z,1.00
2022-12-19T19:33:23.663Z,0.90
2022-12-19T19:36:15.286Z,0.90
2022-12-19T19:39:02.835Z,0.80
2022-12-19T19:41:48.452Z,0.80
2022-12-19T19:44:34.669Z,0.80
2022-12-19T19:47:28.246Z,0.70
2022-12-19T19:50:14.334Z,0.70
2022-12-19T19:53:00.739Z,0.70
2022-12-19T19:55:55.284Z,0.70
2022-12-19T19:58:41.330Z,0.70
2022-12-19T20:01:27.480Z,0.80
2022-12-19T20:04:13.744Z,0.80
2022-12-19T20:06:59.682Z,0.90
2022-12-19T20:09:46.221Z,0.90
2022-12-19T20:12:32.093Z,0.90
2022-12-19T20:15:17.974Z,0.60
2022-12-19T20:18:04.034Z,0.40
2022-12-19T20:20:49.937Z,0.40
2022-12-19T20:23:36.105Z,0.40
2022-12-19T20:26:22.065Z,0.40
2022-12-19T20:29:08.259Z,0.40
2022-12-19T20:31:54.020Z,0.40
2022-12-19T20:34:39.961Z,0.50
2022-12-19T20:37:26.315Z,0.40
2022-12-19T20:40:12.974Z,0.40
2022-12-19T20:42:58.865Z,0.50
2022-12-19T20:45:45.268Z,0.60
2022-12-19T20:48:31.630Z,0.50
2022-12-19T20:51:18.582Z,0.40
2022-12-19T20:54:05.225Z,0.40
2022-12-19T20:56:51.485Z,0.40
2022-12-19T20:59:37.308Z,0.60
2022-12-19T21:02:23.542Z,0.60
2022-12-19T21:05:09.606Z,0.70
2022-12-19T21:07:55.755Z,0.70
2022-12-19T21:10:41.874Z,0.70
2022-12-19T21:13:28.073Z,0.70
2022-12-19T21:16:15.457Z,0.80
2022-12-19T21:19:01.507Z,0.70
2022-12-19T21:21:47.377Z,0.60
2022-12-19T21:24:33.413Z,0.70
2022-12-19T21:27:19.587Z,0.80
2022-12-19T21:30:05.858Z,0.90
2022-12-19T21:32:51.615Z,0.90
2022-12-19T21:35:38.038Z,1.00
2022-12-19T21:38:24.729Z,1.00
2022-12-19T21:41:12.365Z,1.00
2022-12-19T21:44:00.431Z,0.90
2022-12-19T21:46:46.373Z,0.80
2022-12-19T21:49:32.664Z,0.70
2022-12-19T21:52:18.347Z,0.60
2022-12-19T21:55:05.074Z,0.60
2022-12-19T21:57:51.113Z,0.60
2022-12-19T22:00:36.835Z,0.60
2022-12-19T22:03:22.831Z,0.60
2022-12-19T22:06:08.840Z,0.70
2022-12-19T22:08:54.722Z,0.70
2022-12-19T22:11:40.928Z,0.80
2022-12-19T22:14:26.799Z,0.80
2022-12-19T22:17:12.879Z,1.00
2022-12-19T22:19:58.902Z,1.00
2022-12-19T22:22:45.072Z,1.00
2022-12-19T22:25:30.855Z,0.90
2022-12-19T22:28:16.979Z,0.90
2022-12-19T22:31:03.591Z,0.90
2022-12-19T22:33:50.475Z,1.10
2022-12-19T22:36:37.203Z,1.10
2022-12-19T22:39:23.019Z,1.20
2022-12-19T22:42:08.903Z,1.20
2022-12-19T22:44:54.819Z,1.20
2022-12-19T22:47:42.207Z,1.20
2022-12-19T22:50:28.549Z,1.10
2022-12-19T22:53:15.332Z,1.20
2022-12-19T22:56:06.425Z,1.20
2022-12-19T22:58:53.314Z,1.20
2022-12-19T23:01:41.245Z,1.20
2022-12-19T23:04:27.565Z,1.10
2022-12-19T23:07:13.610Z,1.10
2022-12-19T23:09:59.710Z,1.10
2022-12-19T23:12:45.710Z,1.10
2022-12-19T23:15:34.307Z,1.10
2022-12-19T23:18:20.317Z,1.00
2022-12-19T23:21:09.637Z,1.10
2022-12-19T23:23:56.331Z,1.10
2022-12-19T23:26:42.509Z,1.20
2022-12-19T23:29:28.550Z,1.20
2022-12-19T23:32:14.603Z,1.20
2022-12-19T23:35:00.511Z,1.20
2022-12-19T23:37:46.403Z,1.30
2022-12-19T23:40:32.427Z,1.30
2022-12-19T23:43:18.568Z,1.20
2022-12-19T23:46:05.626Z,1.20
2022-12-19T23:48:52.809Z,1.20
2022-12-19T23:51:38.691Z,1.20
2022-12-19T23:54:24.694Z,1.20
2022-12-19T23:57:10.586Z,1.10
2022-12-19T23:59:56.761Z,1.10
